Time;durP1;ratioP1;P1;durP2;ratioP2;P2;SDS_P1;SDS_P2;PMS_P1;PMS_P2;Temp;Humidity;BMP_temperature;BMP_pressure;BME280_temperature;BME280_humidity;BME280_pressure;Samples;Min_cycle;Max_cycle;Signal;HPM_P1;HPM_P2
2022/07/08 00:02:04;;;;;;;11.45;8.73;;;;;;;22.97;67.43;99947.22;5087775;28;20024;-29
2022/07/08 00:04:29;;;;;;;9.85;8.65;;;;;;;22.79;68.13;99936.13;5087830;28;20035;-32
2022/07/08 00:06:54;;;;;;;10.88;8.80;;;;;;;22.81;68.57;99950.25;5069262;28;20842;-28
2022/07/08 00:09:20;;;;;;;11.43;8.82;;;;;;;22.94;67.04;99937.72;5087181;28;20544;-28
2022/07/08 00:11:46;;;;;;;14.02;8.98;;;;;;;22.84;67.51;99933.34;5068905;28;20062;-29
2022/07/08 00:14:12;;;;;;;12.50;8.55;;;;;;;22.55;68.89;99930.91;5069149;28;20032;-29
2022/07/08 00:16:43;;;;;;;12.05;9.45;;;;;;;22.98;67.27;99943.38;5069077;28;20757;-28
2022/07/08 00:19:14;;;;;;;14.50;9.63;;;;;;;23.00;66.85;99931.06;5068994;28;20134;-31
2022/07/08 00:21:40;;;;;;;12.38;8.70;;;;;;;22.66;67.96;99920.66;5087075;28;20031;-29
2022/07/08 00:24:06;;;;;;;11.15;8.73;;;;;;;22.49;68.64;99921.25;5087171;28;20032;-33
2022/07/08 00:26:31;;;;;;;11.52;9.07;;;;;;;22.26;70.25;99923.06;5087465;28;20471;-31
2022/07/08 00:28:57;;;;;;;12.68;8.82;;;;;;;22.43;69.36;99922.47;5087382;28;20028;-31
2022/07/08 00:31:23;;;;;;;14.02;8.98;;;;;;;22.75;68.06;99918.81;5087522;28;20875;-33
2022/07/08 00:33:49;;;;;;;14.45;9.48;;;;;;;22.77;67.65;99905.75;5087383;28;20055;-30
2022/07/08 00:36:14;;;;;;;12.52;9.35;;;;;;;22.60;68.30;99911.00;5069060;28;20059;-28
2022/07/08 00:38:40;;;;;;;10.95;8.43;;;;;;;22.51;68.93;99901.94;5087081;28;20059;-28
2022/07/08 00:41:05;;;;;;;12.40;9.43;;;;;;;22.63;68.67;99905.75;5087112;28;20143;-30
2022/07/08 00:43:39;;;;;;;11.13;9.32;;;;;;;22.93;67.68;99919.03;5087164;28;20024;-28
2022/07/08 00:46:04;;;;;;;10.98;9.15;;;;;;;22.88;67.79;99917.19;5068926;28;20492;-30
2022/07/08 00:48:30;;;;;;;12.95;9.10;;;;;;;22.90;67.67;99916.91;5068741;28;20027;-28
2022/07/08 00:50:59;;;;;;;13.00;10.00;;;;;;;22.59;68.42;99912.09;5086942;28;20110;-27
2022/07/08 00:53:25;;;;;;;11.88;8.82;;;;;;;22.36;69.16;99906.56;5068196;28;20419;-30
2022/07/08 00:55:51;;;;;;;9.65;8.40;;;;;;;22.00;70.76;99909.91;5086637;28;20032;-28
2022/07/08 00:58:17;;;;;;;11.90;8.85;;;;;;;21.67;72.28;99907.19;5068652;28;20051;-29
2022/07/08 01:00:42;;;;;;;12.02;8.75;;;;;;;21.57;73.24;99884.88;5086344;28;20126;-29
2022/07/08 01:03:08;;;;;;;11.75;8.68;;;;;;;21.44;73.40;99889.16;5086887;28;20024;-29
2022/07/08 01:05:34;;;;;;;12.70;9.38;;;;;;;21.86;71.43;99884.63;5086433;28;20039;-28
2022/07/08 01:07:59;;;;;;;11.50;8.70;;;;;;;21.52;72.72;99885.75;5086460;28;20024;-33
2022/07/08 01:10:25;;;;;;;11.60;8.98;;;;;;;21.90;71.05;99882.13;5086911;28;20028;-29
2022/07/08 01:12:50;;;;;;;12.20;9.63;;;;;;;22.02;70.06;99885.97;5068571;28;20032;-31
2022/07/08 01:15:16;;;;;;;14.45;9.93;;;;;;;21.73;71.36;99896.28;5068676;28;20028;-35
2022/07/08 01:17:43;;;;;;;12.35;10.07;;;;;;;21.67;71.74;99903.69;5086596;28;20527;-28
2022/07/08 01:20:11;;;;;;;14.13;10.30;;;;;;;21.54;71.83;99913.41;5051936;28;20097;-29
2022/07/08 01:22:36;;;;;;;15.93;10.90;;;;;;;21.25;73.01;99895.38;5068181;28;20029;-32
2022/07/08 01:25:04;;;;;;;13.65;10.90;;;;;;;21.14;72.97;99901.22;5086838;28;20110;-32
2022/07/08 01:27:29;;;;;;;13.75;10.60;;;;;;;20.91;74.28;99905.63;5067935;28;20127;-30
2022/07/08 01:29:55;;;;;;;20.13;13.07;;;;;;;20.91;74.21;99911.84;5086796;28;20119;-30
2022/07/08 01:32:20;;;;;;;18.08;12.38;;;;;;;21.06;73.73;99899.97;5086709;28;20035;-37
2022/07/08 01:34:45;;;;;;;15.32;11.00;;;;;;;21.03;73.97;99914.94;5086629;28;20510;-29
2022/07/08 01:37:11;;;;;;;13.43;9.88;;;;;;;20.83;74.44;99894.31;5086441;28;20028;-33
2022/07/08 01:39:36;;;;;;;11.68;9.13;;;;;;;20.76;75.00;99909.31;5086426;28;20808;-28
2022/07/08 01:42:02;;;;;;;12.65;10.07;;;;;;;20.76;75.45;99920.97;5068070;28;20052;-30
2022/07/08 01:44:27;;;;;;;10.38;8.80;;;;;;;20.67;75.68;99911.88;5086295;28;20028;-30
2022/07/08 01:46:53;;;;;;;11.20;8.57;;;;;;;20.75;74.73;99903.09;5086416;28;20031;-28
2022/07/08 01:49:20;;;;;;;11.45;8.60;;;;;;;21.08;73.96;99908.63;5086005;28;20557;-35
2022/07/08 01:51:45;;;;;;;11.67;8.63;;;;;;;20.76;75.31;99904.72;5086249;28;20083;-28
2022/07/08 01:54:11;;;;;;;12.05;8.02;;;;;;;20.89;74.43;99891.56;5086599;28;20467;-32
2022/07/08 01:56:36;;;;;;;11.93;8.73;;;;;;;20.71;75.15;99907.47;5086483;28;20047;-28
2022/07/08 01:59:02;;;;;;;11.18;8.25;;;;;;;21.05;73.01;99901.09;5086440;28;20366;-30
2022/07/08 02:01:27;;;;;;;11.35;8.60;;;;;;;20.76;73.64;99885.75;5086269;28;20428;-31
2022/07/08 02:03:53;;;;;;;10.95;8.48;;;;;;;20.50;74.71;99889.84;5086390;28;20058;-33
2022/07/08 02:06:18;;;;;;;9.32;7.60;;;;;;;20.44;75.13;99908.84;5086027;28;20028;-30
2022/07/08 02:08:44;;;;;;;12.05;8.48;;;;;;;20.37;75.62;99903.00;5086474;28;20035;-31
2022/07/08 02:13:53;;;;;;;10.20;7.88;;;;;;;20.55;74.25;99893.28;5088571;28;20034;-31
2022/07/08 02:16:19;;;;;;;9.88;8.23;;;;;;;20.77;73.48;99909.03;5089603;28;20024;-28
2022/07/08 02:18:44;;;;;;;10.65;7.88;;;;;;;20.90;72.76;99907.50;5089537;28;20656;-29
2022/07/08 02:21:09;;;;;;;11.00;7.78;;;;;;;21.15;71.82;99922.63;5089858;28;20070;-32
2022/07/08 02:23:35;;;;;;;11.63;7.95;;;;;;;21.34;70.71;99929.97;5089450;28;20700;-33
2022/07/08 02:26:00;;;;;;;10.20;7.72;;;;;;;20.84;72.60;99933.06;5071404;28;20035;-28
2022/07/08 02:28:26;;;;;;;13.00;8.18;;;;;;;20.76;72.90;99920.97;5089482;28;20028;-32
2022/07/08 02:30:52;;;;;;;11.45;8.48;;;;;;;20.48;74.33;99914.50;5089631;28;20081;-31
2022/07/08 02:33:17;;;;;;;11.75;8.15;;;;;;;20.85;72.89;99921.94;5071219;28;20036;-31
2022/07/08 02:35:42;;;;;;;10.68;8.73;;;;;;;20.86;72.73;99926.28;5089152;28;20113;-28
2022/07/08 02:38:08;;;;;;;11.55;8.05;;;;;;;21.09;72.04;99945.50;5071310;28;20468;-28
2022/07/08 02:40:33;;;;;;;14.60;9.18;;;;;;;20.59;72.40;99934.19;5089151;28;20048;-28
2022/07/08 02:42:59;;;;;;;11.95;9.10;;;;;;;20.28;73.36;99940.69;5089410;28;20542;-31
2022/07/08 02:45:24;;;;;;;11.55;8.93;;;;;;;19.73;76.03;99953.66;5070856;28;20036;-31
2022/07/08 02:47:50;;;;;;;15.15;10.30;;;;;;;19.59;78.68;99948.03;5089040;28;20027;-30
2022/07/08 02:50:15;;;;;;;15.90;10.90;;;;;;;19.27;81.71;99935.03;5089121;28;20028;-29
2022/07/08 02:52:40;;;;;;;14.35;10.18;;;;;;;19.40;81.36;99936.28;5089293;28;20024;-28
2022/07/08 02:55:06;;;;;;;12.77;9.32;;;;;;;19.58;80.99;99954.53;5071147;28;20034;-29
2022/07/08 02:57:31;;;;;;;14.70;10.45;;;;;;;19.64;80.40;99945.31;5088710;28;20035;-31
2022/07/08 02:59:57;;;;;;;16.77;11.30;;;;;;;19.91;79.78;99964.88;5088979;28;20108;-28
2022/07/08 03:02:22;;;;;;;14.43;10.77;;;;;;;20.06;79.13;99959.31;5088801;28;20070;-29
2022/07/08 03:04:48;;;;;;;17.17;10.82;;;;;;;19.96;78.93;99952.13;5070568;28;20032;-29
2022/07/08 03:07:13;;;;;;;12.75;9.63;;;;;;;20.23;77.79;99959.72;5088948;28;20416;-28
2022/07/08 03:09:39;;;;;;;12.68;9.52;;;;;;;20.16;77.70;99956.53;5088694;28;20039;-28
2022/07/08 03:12:04;;;;;;;11.38;8.73;;;;;;;20.12;77.71;99965.50;5088614;28;20024;-30
2022/07/08 03:14:30;;;;;;;10.95;9.23;;;;;;;20.07;77.87;99956.34;5070434;28;20043;-28
2022/07/08 03:16:55;;;;;;;11.23;8.40;;;;;;;19.79;80.18;99978.78;5070206;28;20035;-30
2022/07/08 03:19:21;;;;;;;11.55;9.23;;;;;;;20.06;78.39;99962.88;5088491;28;20028;-29
2022/07/08 03:21:46;;;;;;;11.23;9.18;;;;;;;20.07;78.70;99967.19;5088741;28;20024;-28
2022/07/08 03:24:12;;;;;;;12.27;9.57;;;;;;;20.16;78.17;99961.94;5088306;28;20040;-28
2022/07/08 03:26:37;;;;;;;11.68;9.77;;;;;;;20.11;78.65;99980.16;5070402;28;20028;-30
2022/07/08 03:29:03;;;;;;;12.60;9.40;;;;;;;20.28;78.72;99972.41;5088373;28;20104;-30
2022/07/08 03:31:28;;;;;;;11.25;9.52;;;;;;;20.36;77.71;99977.19;5088105;28;20024;-28
2022/07/08 03:33:54;;;;;;;18.02;11.57;;;;;;;20.36;76.92;99954.72;5069860;28;20043;-28
2022/07/08 03:36:19;;;;;;;14.07;11.13;;;;;;;20.25;77.59;99959.44;5088609;28;20185;-28
2022/07/08 03:38:45;;;;;;;21.75;12.93;;;;;;;20.03;78.42;99955.31;5088450;28;20036;-33
2022/07/08 03:41:19;;;;;;;16.02;11.90;;;;;;;20.18;78.35;99969.78;5088116;28;20492;-29
2022/07/08 03:43:49;;;;;;;13.82;10.05;;;;;;;20.13;78.83;99950.91;5088176;28;20036;-30
2022/07/08 03:46:15;;;;;;;13.80;10.65;;;;;;;19.94;80.53;99958.91;5069526;28;20035;-30
2022/07/08 03:48:40;;;;;;;14.50;10.82;;;;;;;20.14;79.16;99952.50;5087821;28;20020;-33
2022/07/08 03:51:06;;;;;;;14.77;11.10;;;;;;;20.50;77.64;99947.53;5087794;28;20035;-28
2022/07/08 03:53:31;;;;;;;13.30;10.48;;;;;;;20.54;77.46;99956.69;5069546;28;20028;-28
2022/07/08 03:55:57;;;;;;;14.88;11.27;;;;;;;20.80;76.19;99951.81;5087637;28;20453;-32
2022/07/08 03:58:22;;;;;;;12.52;9.98;;;;;;;20.61;77.17;99961.78;5087725;28;20036;-29
2022/07/08 04:00:48;;;;;;;12.80;10.25;;;;;;;20.57;77.41;99955.31;5087300;28;20093;-29
2022/07/08 04:03:13;;;;;;;12.80;10.70;;;;;;;20.57;78.25;99969.66;5088026;28;20085;-31
2022/07/08 04:05:39;;;;;;;12.43;10.43;;;;;;;20.69;77.17;99958.44;5087367;28;20040;-32
2022/07/08 04:08:05;;;;;;;12.35;10.38;;;;;;;21.12;75.67;99977.44;5087426;28;20035;-33
2022/07/08 04:10:30;;;;;;;12.18;10.50;;;;;;;20.96;75.70;99968.69;5069221;28;20514;-29
2022/07/08 04:12:56;;;;;;;12.38;10.32;;;;;;;21.11;75.43;99975.03;5087388;28;20051;-28
2022/07/08 04:15:22;;;;;;;13.43;9.93;;;;;;;21.44;72.94;99978.66;5087588;28;20038;-29
2022/07/08 04:17:47;;;;;;;13.85;9.30;;;;;;;21.61;71.68;99962.66;5087566;28;20108;-30
2022/07/08 04:20:13;;;;;;;12.60;9.85;;;;;;;21.67;71.42;99961.47;5087798;28;20110;-28
2022/07/08 04:22:39;;;;;;;13.88;9.95;;;;;;;21.74;71.87;99963.00;5069432;28;20028;-31
2022/07/08 04:25:06;;;;;;;12.48;10.27;;;;;;;21.54;72.71;99973.09;5069276;28;20032;-32
2022/07/08 04:27:31;;;;;;;12.02;9.88;;;;;;;21.74;72.09;99971.97;5068850;28;20090;-29
2022/07/08 04:29:57;;;;;;;11.35;9.35;;;;;;;21.56;72.76;99960.03;5087171;28;20538;-30
2022/07/08 04:32:22;;;;;;;12.40;9.88;;;;;;;21.62;72.09;99968.91;5087426;28;20553;-35
2022/07/08 04:34:47;;;;;;;11.65;9.65;;;;;;;21.73;71.78;99975.00;5087161;28;20511;-28
2022/07/08 04:37:13;;;;;;;12.25;9.02;;;;;;;21.74;72.21;99982.00;5086738;28;20922;-33
2022/07/08 04:39:38;;;;;;;13.27;10.15;;;;;;;21.87;71.99;99986.69;5086956;28;20465;-28
2022/07/08 04:42:04;;;;;;;12.70;9.55;;;;;;;21.72;72.41;99962.50;5086948;28;20098;-33
2022/07/08 04:44:30;;;;;;;12.43;10.68;;;;;;;21.80;73.09;99980.81;5086796;28;20768;-28
2022/07/08 04:46:55;;;;;;;12.38;11.07;;;;;;;22.01;71.64;99976.69;5069420;28;20088;-28
2022/07/08 04:49:21;;;;;;;13.43;9.65;;;;;;;22.23;70.24;99984.22;5086941;28;20020;-30
2022/07/08 04:51:46;;;;;;;11.20;9.90;;;;;;;21.95;72.22;99977.88;5087116;28;20024;-31
2022/07/08 04:54:11;;;;;;;12.23;8.63;;;;;;;22.06;71.04;99982.03;5068778;28;20034;-28
2022/07/08 04:56:37;;;;;;;12.45;9.00;;;;;;;22.18;70.14;99972.59;5086998;28;20043;-29
2022/07/08 04:59:02;;;;;;;11.10;8.85;;;;;;;22.27;70.28;99970.84;5086926;28;20040;-29
2022/07/08 05:01:28;;;;;;;14.90;9.82;;;;;;;22.39;69.45;99954.88;5086522;28;20024;-29
2022/07/08 05:03:54;;;;;;;13.23;10.63;;;;;;;22.81;68.55;99961.09;5087330;28;20639;-30
2022/07/08 05:06:20;;;;;;;14.27;11.15;;;;;;;23.01;68.08;99986.28;5068847;28;20044;-28
2022/07/08 05:08:45;;;;;;;11.50;9.57;;;;;;;22.75;70.11;99973.19;5068880;28;20036;-28
2022/07/08 05:11:10;;;;;;;13.55;9.15;;;;;;;22.84;69.40;99976.84;5086859;28;20035;-31
2022/07/08 05:13:36;;;;;;;12.75;9.93;;;;;;;22.46;69.19;99966.13;5068716;28;20031;-28
2022/07/08 05:16:01;;;;;;;11.88;9.95;;;;;;;22.79;68.87;99978.84;5068553;28;20025;-28
2022/07/08 05:18:27;;;;;;;14.80;10.20;;;;;;;22.78;68.54;99972.59;5087087;28;20109;-28
2022/07/08 05:20:52;;;;;;;13.15;10.52;;;;;;;23.03;67.28;99979.47;5086924;28;20066;-31
2022/07/08 05:23:18;;;;;;;15.93;10.75;;;;;;;23.27;67.02;99978.38;5086906;28;20410;-34
2022/07/08 05:25:43;;;;;;;13.35;10.43;;;;;;;23.32;67.04;99981.00;5068647;28;20546;-28
2022/07/08 05:28:08;;;;;;;17.27;10.52;;;;;;;23.29;68.12;99991.69;5086668;28;20028;-29
2022/07/08 05:30:34;;;;;;;13.32;10.80;;;;;;;23.55;67.57;99990.00;5068297;28;20028;-36
2022/07/08 05:32:59;;;;;;;13.38;11.63;;;;;;;23.62;67.05;99992.31;5068681;28;20140;-30
2022/07/08 05:35:25;;;;;;;14.68;12.43;;;;;;;23.77;67.38;99986.53;5086686;28;20024;-28
2022/07/08 05:37:50;;;;;;;13.75;12.20;;;;;;;23.94;64.65;99991.28;5087346;28;20280;-31
2022/07/08 05:40:16;;;;;;;16.63;12.45;;;;;;;23.97;64.90;99992.63;5086440;28;20032;-29
2022/07/08 05:42:42;;;;;;;15.50;11.70;;;;;;;24.03;65.06;100003.06;5086695;28;20111;-34
2022/07/08 05:45:08;;;;;;;14.10;11.27;;;;;;;23.75;65.66;99983.28;5068141;28;20085;-28
2022/07/08 05:47:34;;;;;;;15.27;11.85;;;;;;;23.79;67.27;99988.97;5069945;28;20024;-28
2022/07/08 05:49:59;;;;;;;15.13;11.07;;;;;;;23.84;66.02;99991.53;5090614;28;20054;-30
2022/07/08 05:52:25;;;;;;;14.55;11.68;;;;;;;23.80;66.42;99985.94;5090449;28;20037;-33
2022/07/08 05:54:50;;;;;;;15.80;12.45;;;;;;;23.91;65.25;99967.41;5090294;28;20498;-31
2022/07/08 05:57:16;;;;;;;14.07;12.02;;;;;;;24.13;66.08;99972.03;5090157;28;20016;-32
2022/07/08 05:59:43;;;;;;;14.45;10.95;;;;;;;24.07;65.87;99973.28;5089720;28;20468;-29
2022/07/08 06:02:09;;;;;;;15.07;12.13;;;;;;;23.90;68.06;99973.97;5071977;28;20168;-31
2022/07/08 06:04:34;;;;;;;14.13;11.82;;;;;;;24.32;67.32;99988.16;5090223;28;20325;-33
2022/07/08 06:07:00;;;;;;;14.48;12.18;;;;;;;24.49;65.47;99981.19;5071740;28;20040;-28
2022/07/08 06:09:25;;;;;;;16.58;12.63;;;;;;;24.37;64.14;99976.31;5089781;28;20028;-31
2022/07/08 06:11:51;;;;;;;14.95;11.77;;;;;;;24.29;65.08;99986.06;5089933;28;20028;-29
2022/07/08 06:14:17;;;;;;;13.80;11.80;;;;;;;24.30;64.15;99995.06;5090018;28;20071;-32
2022/07/08 06:16:42;;;;;;;15.70;11.55;;;;;;;24.37;65.85;99995.41;5071822;28;20488;-30
2022/07/08 06:19:08;;;;;;;14.98;12.07;;;;;;;24.37;65.30;99977.13;5090130;28;20036;-30
2022/07/08 06:21:33;;;;;;;16.08;11.52;;;;;;;24.52;64.60;99975.13;5071206;28;20032;-30
2022/07/08 06:24:00;;;;;;;12.57;10.98;;;;;;;24.67;64.74;99980.16;5089411;28;20028;-33
2022/07/08 06:26:26;;;;;;;12.85;11.55;;;;;;;24.41;64.63;99966.41;5089895;28;20032;-29
2022/07/08 06:28:51;;;;;;;14.10;11.95;;;;;;;24.77;62.94;99984.53;5089091;28;20502;-31
2022/07/08 06:31:17;;;;;;;13.40;11.50;;;;;;;24.59;61.21;99962.66;5089774;28;20032;-28
2022/07/08 06:33:42;;;;;;;14.82;12.43;;;;;;;24.99;63.35;99980.91;5089411;28;20034;-28
2022/07/08 06:36:08;;;;;;;14.43;12.38;;;;;;;24.72;64.35;99977.28;5089664;28;20055;-28
2022/07/08 06:38:33;;;;;;;15.00;12.10;;;;;;;24.99;63.33;99978.19;5089420;28;20028;-29
2022/07/08 06:40:59;;;;;;;12.95;11.00;;;;;;;25.15;61.08;99962.97;5089411;28;20052;-30
2022/07/08 06:43:24;;;;;;;15.23;11.77;;;;;;;25.13;62.21;99965.22;5089164;28;20449;-30
2022/07/08 06:45:49;;;;;;;14.05;11.18;;;;;;;25.07;62.83;99958.31;5089723;28;20135;-30
2022/07/08 06:48:15;;;;;;;14.23;10.80;;;;;;;25.23;62.75;99964.94;5089300;28;20028;-28
2022/07/08 06:50:41;;;;;;;15.07;11.80;;;;;;;25.55;62.66;99965.56;5089138;28;20468;-28
2022/07/08 06:53:06;;;;;;;14.13;12.25;;;;;;;25.44;61.95;99964.31;5089050;28;20028;-30
2022/07/08 06:55:32;;;;;;;14.48;11.77;;;;;;;25.65;62.23;99962.53;5088933;28;20043;-33
2022/07/08 06:57:58;;;;;;;13.13;10.05;;;;;;;25.71;59.02;99951.44;5070406;28;20077;-31
2022/07/08 07:00:23;;;;;;;10.90;8.85;;;;;;;25.79;57.34;99954.16;5087052;28;20036;-32
2022/07/08 07:02:50;;;;;;;11.23;8.80;;;;;;;25.71;56.64;99945.97;5088996;28;20024;-28
2022/07/08 07:05:17;;;;;;;12.05;10.07;;;;;;;25.70;57.78;99944.34;5070877;28;20035;-28
2022/07/08 07:07:43;;;;;;;13.63;9.67;;;;;;;26.06;58.29;99958.47;5070843;28;20049;-30
2022/07/08 07:10:09;;;;;;;13.13;10.93;;;;;;;26.03;58.31;99958.31;5088807;28;20266;-30
2022/07/08 07:12:34;;;;;;;13.18;10.07;;;;;;;25.97;57.47;99952.22;5088480;28;20039;-37
2022/07/08 07:14:59;;;;;;;12.07;10.25;;;;;;;26.26;59.16;99958.91;5089110;28;20024;-30
2022/07/08 07:17:25;;;;;;;9.55;8.30;;;;;;;26.49;53.46;99948.50;5088501;28;20030;-29
2022/07/08 07:19:50;;;;;;;8.85;7.93;;;;;;;26.86;51.89;99946.09;5070143;28;20028;-31
2022/07/08 07:22:17;;;;;;;10.98;7.88;;;;;;;26.61;52.56;99951.38;5088617;28;20032;-31
2022/07/08 07:24:42;;;;;;;9.20;7.30;;;;;;;26.30;53.47;99962.59;5070130;28;20020;-28
2022/07/08 07:27:08;;;;;;;10.88;7.57;;;;;;;26.48;53.07;99954.28;5088834;28;20123;-33
2022/07/08 07:29:33;;;;;;;9.02;7.93;;;;;;;26.69;54.20;99941.53;5088182;28;20454;-28
2022/07/08 07:31:59;;;;;;;8.65;7.72;;;;;;;26.70;52.89;99945.84;5088689;28;20071;-29
2022/07/08 07:34:25;;;;;;;8.77;7.38;;;;;;;26.79;51.23;99949.34;5088718;28;20085;-28
2022/07/08 07:36:50;;;;;;;9.88;8.20;;;;;;;26.72;54.33;99929.13;5070217;28;20036;-28
2022/07/08 07:39:15;;;;;;;9.93;7.90;;;;;;;27.02;51.85;99949.06;5088645;28;20035;-30
2022/07/08 07:41:41;;;;;;;9.70;7.88;;;;;;;27.02;52.71;99932.63;5087222;28;20443;-32
2022/07/08 07:44:06;;;;;;;9.07;7.93;;;;;;;27.23;50.69;99932.66;5088208;28;20032;-29
2022/07/08 07:46:32;;;;;;;8.85;7.43;;;;;;;27.11;49.19;99929.84;5088205;28;20028;-29
2022/07/08 07:48:58;;;;;;;10.40;7.88;;;;;;;27.10;49.73;99929.03;5088311;28;20105;-28
2022/07/08 07:51:24;;;;;;;14.20;7.22;;;;;;;27.15;49.47;99931.56;5069494;28;20035;-28
2022/07/08 07:53:49;;;;;;;8.05;6.72;;;;;;;27.37;49.74;99915.97;5088572;28;20032;-32
2022/07/08 07:56:15;;;;;;;8.00;6.95;;;;;;;27.58;49.64;99904.97;5087934;28;20028;-33
2022/07/08 07:58:40;;;;;;;9.70;6.53;;;;;;;27.61;49.13;99921.53;5088344;28;20024;-31
2022/07/08 08:01:06;;;;;;;8.38;6.55;;;;;;;27.89;49.63;99928.38;5069973;28;20506;-28
2022/07/08 08:03:31;;;;;;;8.32;6.22;;;;;;;28.19;48.56;99920.78;5087844;28;20077;-31
2022/07/08 08:05:59;;;;;;;7.38;5.85;;;;;;;28.35;46.35;99910.75;5088092;28;20035;-31
2022/07/08 08:08:25;;;;;;;7.97;5.70;;;;;;;28.58;46.83;99907.56;5087534;28;20499;-28
2022/07/08 08:10:52;;;;;;;6.93;4.97;;;;;;;28.96;43.24;99915.41;5086742;28;20035;-29
2022/07/08 08:13:18;;;;;;;6.40;5.60;;;;;;;28.88;44.54;99910.06;5087914;28;20034;-31
2022/07/08 08:15:44;;;;;;;8.05;5.88;;;;;;;29.04;42.37;99919.19;5069581;28;20262;-28
2022/07/08 08:18:09;;;;;;;8.25;4.50;;;;;;;28.57;41.72;99900.50;5087773;28;20040;-31
2022/07/08 08:20:35;;;;;;;6.68;5.00;;;;;;;28.14;43.09;99896.34;5069468;28;20096;-30
2022/07/08 08:23:00;;;;;;;6.68;4.90;;;;;;;27.85;42.63;99895.38;5069361;28;20028;-31
2022/07/08 08:25:26;;;;;;;7.60;5.13;;;;;;;27.93;45.94;99894.50;5087179;28;20024;-29
2022/07/08 08:27:53;;;;;;;6.00;4.80;;;;;;;28.51;45.41;99899.13;5087765;28;20738;-28
2022/07/08 08:30:18;;;;;;;6.75;4.75;;;;;;;29.00;43.24;99886.13;5087663;28;20020;-30
2022/07/08 08:32:45;;;;;;;6.78;4.85;;;;;;;29.13;43.50;99899.84;5087740;28;20476;-30
2022/07/08 08:35:10;;;;;;;5.88;4.57;;;;;;;29.38;41.86;99906.03;5069168;28;20024;-32
2022/07/08 08:37:36;;;;;;;6.75;4.65;;;;;;;29.43;39.99;99908.56;5087495;28;20392;-29
2022/07/08 08:40:07;;;;;;;6.93;4.72;;;;;;;29.05;41.25;99894.13;5087341;28;20039;-29
2022/07/08 08:42:32;;;;;;;7.20;4.45;;;;;;;29.34;41.48;99902.41;5068866;28;20568;-29
2022/07/08 08:44:59;;;;;;;6.15;4.60;;;;;;;29.34;41.34;99900.47;5087227;28;20036;-31
2022/07/08 08:47:33;;;;;;;5.15;3.97;;;;;;;29.64;40.30;99908.34;5068777;28;20047;-34
2022/07/08 08:52:53;;;;;;;6.20;4.00;;;;;;;29.80;39.37;99889.94;5087226;28;20522;-28
2022/07/08 08:55:27;;;;;;;5.45;4.15;;;;;;;29.84;39.38;99893.59;5068469;28;20031;-33
2022/07/08 08:58:01;;;;;;;6.88;3.80;;;;;;;29.95;38.14;99895.81;5087114;28;20089;-30
2022/07/08 09:00:27;;;;;;;4.95;3.63;;;;;;;29.85;39.26;99875.13;5086831;28;20070;-31
2022/07/08 09:02:54;;;;;;;5.88;4.05;;;;;;;29.97;38.53;99888.81;5068362;28;20028;-32
2022/07/08 09:05:21;;;;;;;4.90;3.53;;;;;;;29.64;38.53;99876.16;5066569;28;20024;-34
2022/07/08 09:07:46;;;;;;;6.00;3.03;;;;;;;29.88;38.35;99882.69;5068420;28;20028;-34
2022/07/08 09:10:14;;;;;;;5.07;2.95;;;;;;;30.00;37.64;99882.59;5085099;28;20626;-32
2022/07/08 09:12:39;;;;;;;4.53;2.67;;;;;;;29.90;36.36;99883.13;5064755;28;20123;-29
2022/07/08 09:15:05;;;;;;;3.42;2.40;;;;;;;30.24;37.59;99858.84;5066632;28;20522;-29
2022/07/08 09:17:30;;;;;;;5.63;2.90;;;;;;;30.68;36.70;99869.69;5066311;28;20079;-31
2022/07/08 09:19:56;;;;;;;4.80;2.85;;;;;;;30.35;35.88;99878.38;5066787;28;20564;-32
2022/07/08 09:22:22;;;;;;;5.00;2.78;;;;;;;30.33;35.28;99859.47;5082706;28;20028;-31
2022/07/08 09:24:48;;;;;;;5.13;3.00;;;;;;;30.67;36.33;99857.09;5072408;28;20122;-29
2022/07/08 09:27:14;;;;;;;3.65;2.63;;;;;;;30.94;36.07;99862.78;5087941;28;20099;-32
2022/07/08 09:30:00;;;;;;;3.17;2.70;;;;;;;30.92;35.68;99860.41;5086954;28;20078;-28
2022/07/08 09:32:26;;;;;;;4.88;2.97;;;;;;;30.96;35.06;99863.22;5072269;28;20028;-32
2022/07/08 09:34:52;;;;;;;4.97;2.80;;;;;;;31.05;35.68;99852.78;5090585;28;20097;-29
2022/07/08 09:37:18;;;;;;;4.18;2.88;;;;;;;31.21;36.70;99856.25;5090430;28;20115;-31
2022/07/08 09:39:45;;;;;;;5.22;2.53;;;;;;;31.47;33.69;99852.06;5072150;28;20036;-29
2022/07/08 09:42:17;;;;;;;4.55;2.80;;;;;;;31.51;33.50;99852.94;5071791;28;20578;-37
2022/07/08 09:44:50;;;;;;;6.20;2.50;;;;;;;30.95;32.09;99839.59;5090158;28;20024;-29
2022/07/08 09:47:16;;;;;;;5.25;2.85;;;;;;;31.61;35.86;99851.53;5072305;28;20032;-30
2022/07/08 09:49:43;;;;;;;5.05;2.20;;;;;;;31.45;33.37;99832.34;5090214;28;20028;-31
2022/07/08 09:52:10;;;;;;;3.08;2.10;;;;;;;31.55;33.65;99845.53;5071838;28;20074;-30
2022/07/08 09:54:37;;;;;;;4.15;2.67;;;;;;;31.56;32.55;99849.84;5071753;28;20024;-30
2022/07/08 09:57:02;;;;;;;5.65;2.47;;;;;;;31.85;33.24;99836.56;5071516;28;20036;-31
2022/07/08 09:59:30;;;;;;;2.95;2.17;;;;;;;32.34;31.61;99848.78;5089698;28;20024;-28
2022/07/08 10:01:57;;;;;;;3.35;2.10;;;;;;;32.41;31.31;99844.19;5090292;28;20047;-29
2022/07/08 10:04:24;;;;;;;4.80;2.97;;;;;;;31.97;31.92;99833.63;5071631;28;20423;-29
2022/07/08 10:06:50;;;;;;;3.75;2.30;;;;;;;32.02;31.94;99835.31;5071725;28;20036;-34
2022/07/08 10:09:16;;;;;;;3.15;2.20;;;;;;;32.25;30.33;99842.75;5071303;28;20028;-28
2022/07/08 10:11:43;;;;;;;4.75;2.50;;;;;;;32.36;32.09;99846.44;5089546;28;20032;-34
2022/07/08 10:14:09;;;;;;;3.42;2.10;;;;;;;32.12;31.82;99839.38;5071718;28;20042;-29
2022/07/08 10:16:36;;;;;;;6.93;3.10;;;;;;;31.94;33.00;99831.59;5089715;28;20118;-30
2022/07/08 10:19:05;;;;;;;3.65;2.50;;;;;;;31.83;31.90;99841.66;5071467;28;20067;-31
2022/07/08 10:21:34;;;;;;;3.58;2.22;;;;;;;31.61;31.85;99841.28;5071047;28;20024;-28
2022/07/08 10:24:01;;;;;;;3.00;2.30;;;;;;;32.05;33.70;99828.25;5089508;28;20027;-30
2022/07/08 10:26:38;;;;;;;6.20;3.10;;;;;;;32.12;32.04;99817.31;5071005;28;20085;-33
2022/07/08 10:29:05;;;;;;;5.32;2.97;;;;;;;32.31;31.61;99811.72;5089636;28;20047;-30
2022/07/08 10:31:44;;;;;;;4.00;2.60;;;;;;;31.97;32.84;99808.78;5071043;28;20115;-30
2022/07/08 10:34:11;;;;;;;4.00;1.92;;;;;;;31.81;32.41;99810.91;5088429;28;20035;-28
2022/07/08 10:36:49;;;;;;;9.90;4.35;;;;;;;32.10;31.42;99811.38;5071126;28;20031;-30
2022/07/08 10:39:26;;;;;;;6.30;2.30;;;;;;;32.08;31.53;99795.22;5054900;28;20046;-29
2022/07/08 10:42:00;;;;;;;3.85;2.30;;;;;;;32.30;31.88;99807.34;5089499;28;20056;-31
2022/07/08 10:44:44;;;;;;;3.97;2.25;;;;;;;32.56;31.32;99814.03;5089532;28;20070;-29
2022/07/08 10:47:11;;;;;;;2.95;1.95;;;;;;;32.59;31.19;99793.97;5089178;28;20032;-28
2022/07/08 10:49:43;;;;;;;3.70;2.20;;;;;;;33.12;30.74;99802.13;5070702;28;20032;-31
2022/07/08 10:52:09;;;;;;;4.95;2.55;;;;;;;32.52;32.29;99796.59;5089409;28;20054;-29
2022/07/08 10:54:36;;;;;;;5.60;2.53;;;;;;;32.70;32.81;99792.13;5089047;28;20016;-38
2022/07/08 10:57:17;;;;;;;3.08;2.10;;;;;;;32.83;30.69;99782.44;5088970;28;20024;-31
2022/07/08 11:00:06;;;;;;;3.25;2.20;;;;;;;32.42;31.68;99762.97;5070200;28;20052;-32
2022/07/08 11:02:32;;;;;;;3.58;2.28;;;;;;;32.79;31.79;99786.31;5070579;28;20035;-31
2022/07/08 11:04:57;;;;;;;46.00;33.72;;;;;;;32.68;32.08;99757.81;5088636;28;20028;-30
2022/07/08 11:07:28;;;;;;;5.57;2.58;;;;;;;32.79;31.75;99765.03;5087133;28;20488;-30
2022/07/08 11:10:11;;;;;;;2.42;1.95;;;;;;;32.58;31.03;99742.69;5088304;28;20435;-31
2022/07/08 11:12:41;;;;;;;3.38;2.10;;;;;;;32.84;31.33;99758.38;5070742;28;20607;-29
2022/07/08 11:15:11;;;;;;;4.93;2.30;;;;;;;32.58;30.48;99760.03;5070181;28;20024;-29
2022/07/08 11:17:38;;;;;;;4.22;2.50;;;;;;;32.60;30.66;99762.44;5070262;28;20093;-31
2022/07/08 11:20:12;;;;;;;3.58;2.33;;;;;;;33.09;30.61;99744.88;5070167;28;20032;-29
2022/07/08 11:22:39;;;;;;;2.63;2.03;;;;;;;33.36;28.69;99750.25;5088409;28;20067;-29
2022/07/08 11:25:07;;;;;;;3.45;2.10;;;;;;;33.60;30.34;99754.41;5088606;28;20081;-31
2022/07/08 11:27:33;;;;;;;5.68;2.15;;;;;;;32.82;30.65;99753.22;5069873;28;20119;-33
2022/07/08 11:30:01;;;;;;;4.55;2.40;;;;;;;32.92;29.56;99756.50;5069994;28;20504;-32